sensor_id;sensor_type;location;lat;lon;timestamp;P1;durP1;ratioP1;P2;durP2;ratioP2
8187;SDS011;4135;49.184;9.722;2023-04-25T00:00:13;1.98;;;0.45;;
8187;SDS011;4135;49.184;9.722;2023-04-25T00:02:43;0.85;;;0.43;;
8187;SDS011;4135;49.184;9.722;2023-04-25T00:05:13;0.63;;;0.43;;
8187;SDS011;4135;49.184;9.722;2023-04-25T00:07:44;3.75;;;0.85;;
8187;SDS011;4135;49.184;9.722;2023-04-25T00:10:13;1.13;;;0.80;;
8187;SDS011;4135;49.184;9.722;2023-04-25T00:12:43;1.70;;;0.82;;
8187;SDS011;4135;49.184;9.722;2023-04-25T00:15:13;1.67;;;0.60;;
8187;SDS011;4135;49.184;9.722;2023-04-25T00:17:42;4.95;;;0.60;;
8187;SDS011;4135;49.184;9.722;2023-04-25T00:20:12;1.52;;;0.70;;
8187;SDS011;4135;49.184;9.722;2023-04-25T00:22:41;3.17;;;0.73;;
8187;SDS011;4135;49.184;9.722;2023-04-25T00:25:11;1.95;;;0.70;;
8187;SDS011;4135;49.184;9.722;2023-04-25T00:27:40;4.10;;;0.60;;
8187;SDS011;4135;49.184;9.722;2023-04-25T00:30:10;5.85;;;0.77;;
8187;SDS011;4135;49.184;9.722;2023-04-25T00:32:41;2.90;;;0.35;;
8187;SDS011;4135;49.184;9.722;2023-04-25T00:35:10;1.30;;;0.43;;
8187;SDS011;4135;49.184;9.722;2023-04-25T00:37:40;4.63;;;0.70;;
8187;SDS011;4135;49.184;9.722;2023-04-25T00:40:09;3.50;;;0.88;;
8187;SDS011;4135;49.184;9.722;2023-04-25T00:42:39;0.60;;;0.40;;
8187;SDS011;4135;49.184;9.722;2023-04-25T00:45:10;1.00;;;0.30;;
8187;SDS011;4135;49.184;9.722;2023-04-25T00:47:43;1.10;;;0.60;;
8187;SDS011;4135;49.184;9.722;2023-04-25T00:50:13;1.15;;;0.50;;
8187;SDS011;4135;49.184;9.722;2023-04-25T00:52:43;2.40;;;0.40;;
8187;SDS011;4135;49.184;9.722;2023-04-25T00:55:14;2.38;;;0.70;;
8187;SDS011;4135;49.184;9.722;2023-04-25T00:57:44;1.33;;;0.75;;
8187;SDS011;4135;49.184;9.722;2023-04-25T01:00:14;2.88;;;0.65;;
8187;SDS011;4135;49.184;9.722;2023-04-25T01:02:44;1.58;;;0.60;;
8187;SDS011;4135;49.184;9.722;2023-04-25T01:05:14;2.75;;;0.70;;
8187;SDS011;4135;49.184;9.722;2023-04-25T01:07:44;0.93;;;0.77;;
8187;SDS011;4135;49.184;9.722;2023-04-25T01:10:14;1.05;;;0.52;;
8187;SDS011;4135;49.184;9.722;2023-04-25T01:12:44;4.18;;;0.93;;
8187;SDS011;4135;49.184;9.722;2023-04-25T01:15:13;1.15;;;0.50;;
8187;SDS011;4135;49.184;9.722;2023-04-25T01:17:43;2.08;;;0.55;;
8187;SDS011;4135;49.184;9.722;2023-04-25T01:20:13;1.50;;;0.70;;
8187;SDS011;4135;49.184;9.722;2023-04-25T01:22:43;1.90;;;0.50;;
8187;SDS011;4135;49.184;9.722;2023-04-25T01:25:12;1.40;;;0.70;;
8187;SDS011;4135;49.184;9.722;2023-04-25T01:27:43;1.38;;;0.55;;
8187;SDS011;4135;49.184;9.722;2023-04-25T01:30:12;0.93;;;0.60;;
8187;SDS011;4135;49.184;9.722;2023-04-25T01:32:42;1.42;;;0.68;;
8187;SDS011;4135;49.184;9.722;2023-04-25T01:35:12;1.05;;;0.60;;
8187;SDS011;4135;49.184;9.722;2023-04-25T01:37:42;1.10;;;0.73;;
8187;SDS011;4135;49.184;9.722;2023-04-25T01:40:12;1.13;;;0.80;;
8187;SDS011;4135;49.184;9.722;2023-04-25T01:42:42;1.17;;;0.63;;
8187;SDS011;4135;49.184;9.722;2023-04-25T01:45:12;1.05;;;0.50;;
8187;SDS011;4135;49.184;9.722;2023-04-25T01:47:42;1.48;;;0.82;;
8187;SDS011;4135;49.184;9.722;2023-04-25T01:50:12;3.03;;;0.80;;
8187;SDS011;4135;49.184;9.722;2023-04-25T01:52:42;0.45;;;0.45;;
8187;SDS011;4135;49.184;9.722;2023-04-25T01:55:11;0.68;;;0.25;;
8187;SDS011;4135;49.184;9.722;2023-04-25T01:57:41;1.30;;;0.60;;
8187;SDS011;4135;49.184;9.722;2023-04-25T02:00:11;1.92;;;0.57;;
8187;SDS011;4135;49.184;9.722;2023-04-25T02:02:40;0.93;;;0.60;;
8187;SDS011;4135;49.184;9.722;2023-04-25T02:05:10;1.00;;;0.52;;
8187;SDS011;4135;49.184;9.722;2023-04-25T02:07:40;1.05;;;0.45;;
8187;SDS011;4135;49.184;9.722;2023-04-25T02:10:09;3.20;;;0.93;;
8187;SDS011;4135;49.184;9.722;2023-04-25T02:12:39;1.30;;;0.47;;
8187;SDS011;4135;49.184;9.722;2023-04-25T02:15:08;0.63;;;0.38;;
8187;SDS011;4135;49.184;9.722;2023-04-25T02:17:38;1.85;;;0.70;;
8187;SDS011;4135;49.184;9.722;2023-04-25T02:20:08;1.92;;;0.50;;
8187;SDS011;4135;49.184;9.722;2023-04-25T02:22:39;0.80;;;0.65;;
8187;SDS011;4135;49.184;9.722;2023-04-25T02:25:08;1.40;;;0.88;;
8187;SDS011;4135;49.184;9.722;2023-04-25T02:27:39;2.00;;;0.73;;
8187;SDS011;4135;49.184;9.722;2023-04-25T02:30:08;7.25;;;0.90;;
8187;SDS011;4135;49.184;9.722;2023-04-25T02:32:38;1.80;;;0.47;;
8187;SDS011;4135;49.184;9.722;2023-04-25T02:35:09;1.55;;;0.60;;
8187;SDS011;4135;49.184;9.722;2023-04-25T02:37:39;0.88;;;0.50;;
8187;SDS011;4135;49.184;9.722;2023-04-25T02:40:09;0.75;;;0.68;;
8187;SDS011;4135;49.184;9.722;2023-04-25T02:42:39;1.55;;;0.70;;
8187;SDS011;4135;49.184;9.722;2023-04-25T02:45:08;0.47;;;0.40;;
8187;SDS011;4135;49.184;9.722;2023-04-25T02:47:38;0.80;;;0.60;;
8187;SDS011;4135;49.184;9.722;2023-04-25T02:50:08;2.15;;;0.50;;
8187;SDS011;4135;49.184;9.722;2023-04-25T02:52:37;1.45;;;0.30;;
8187;SDS011;4135;49.184;9.722;2023-04-25T02:55:07;4.90;;;0.98;;
8187;SDS011;4135;49.184;9.722;2023-04-25T02:57:37;4.20;;;0.38;;
8187;SDS011;4135;49.184;9.722;2023-04-25T03:00:07;4.80;;;0.60;;
8187;SDS011;4135;49.184;9.722;2023-04-25T03:02:36;0.93;;;0.30;;
8187;SDS011;4135;49.184;9.722;2023-04-25T03:05:06;1.55;;;0.50;;
8187;SDS011;4135;49.184;9.722;2023-04-25T03:07:36;1.75;;;0.60;;
8187;SDS011;4135;49.184;9.722;2023-04-25T03:10:06;0.45;;;0.43;;
8187;SDS011;4135;49.184;9.722;2023-04-25T03:12:36;1.63;;;0.52;;
8187;SDS011;4135;49.184;9.722;2023-04-25T03:15:06;1.08;;;0.98;;
8187;SDS011;4135;49.184;9.722;2023-04-25T03:17:36;1.27;;;0.52;;
8187;SDS011;4135;49.184;9.722;2023-04-25T03:20:05;1.30;;;0.60;;
8187;SDS011;4135;49.184;9.722;2023-04-25T03:22:37;1.45;;;0.55;;
8187;SDS011;4135;49.184;9.722;2023-04-25T03:25:07;1.52;;;0.82;;
8187;SDS011;4135;49.184;9.722;2023-04-25T03:27:36;1.25;;;0.65;;
8187;SDS011;4135;49.184;9.722;2023-04-25T03:30:06;1.60;;;0.60;;
8187;SDS011;4135;49.184;9.722;2023-04-25T03:32:36;2.10;;;0.80;;
8187;SDS011;4135;49.184;9.722;2023-04-25T03:35:06;1.65;;;0.52;;
8187;SDS011;4135;49.184;9.722;2023-04-25T03:37:36;0.32;;;0.28;;
8187;SDS011;4135;49.184;9.722;2023-04-25T03:40:06;3.72;;;1.05;;
8187;SDS011;4135;49.184;9.722;2023-04-25T03:42:35;2.53;;;0.43;;
8187;SDS011;4135;49.184;9.722;2023-04-25T03:45:05;1.02;;;0.50;;
8187;SDS011;4135;49.184;9.722;2023-04-25T03:47:35;0.93;;;0.63;;
8187;SDS011;4135;49.184;9.722;2023-04-25T03:50:05;1.00;;;0.50;;
8187;SDS011;4135;49.184;9.722;2023-04-25T03:52:35;0.70;;;0.40;;
8187;SDS011;4135;49.184;9.722;2023-04-25T03:55:04;2.58;;;0.40;;
8187;SDS011;4135;49.184;9.722;2023-04-25T03:57:34;2.85;;;0.65;;
8187;SDS011;4135;49.184;9.722;2023-04-25T04:00:04;0.85;;;0.55;;
8187;SDS011;4135;49.184;9.722;2023-04-25T04:02:35;0.77;;;0.30;;
8187;SDS011;4135;49.184;9.722;2023-04-25T04:05:06;1.35;;;0.40;;
8187;SDS011;4135;49.184;9.722;2023-04-25T04:07:36;1.85;;;0.70;;
8187;SDS011;4135;49.184;9.722;2023-04-25T04:10:09;0.98;;;0.60;;
8187;SDS011;4135;49.184;9.722;2023-04-25T04:12:39;1.23;;;0.30;;
8187;SDS011;4135;49.184;9.722;2023-04-25T04:15:08;1.20;;;0.50;;
8187;SDS011;4135;49.184;9.722;2023-04-25T04:17:38;0.75;;;0.50;;
8187;SDS011;4135;49.184;9.722;2023-04-25T04:20:09;0.95;;;0.40;;
8187;SDS011;4135;49.184;9.722;2023-04-25T04:22:40;2.58;;;0.80;;
8187;SDS011;4135;49.184;9.722;2023-04-25T04:25:09;0.50;;;0.40;;
8187;SDS011;4135;49.184;9.722;2023-04-25T04:27:40;0.95;;;0.65;;
8187;SDS011;4135;49.184;9.722;2023-04-25T04:30:10;0.60;;;0.43;;
8187;SDS011;4135;49.184;9.722;2023-04-25T04:32:39;1.50;;;0.68;;
8187;SDS011;4135;49.184;9.722;2023-04-25T04:35:09;1.85;;;0.57;;
8187;SDS011;4135;49.184;9.722;2023-04-25T04:37:40;0.90;;;0.60;;
8187;SDS011;4135;49.184;9.722;2023-04-25T04:40:09;0.75;;;0.30;;
8187;SDS011;4135;49.184;9.722;2023-04-25T04:42:39;0.43;;;0.20;;
8187;SDS011;4135;49.184;9.722;2023-04-25T04:45:09;1.23;;;0.50;;
8187;SDS011;4135;49.184;9.722;2023-04-25T04:47:39;0.63;;;0.50;;
8187;SDS011;4135;49.184;9.722;2023-04-25T04:50:09;4.57;;;0.82;;
8187;SDS011;4135;49.184;9.722;2023-04-25T04:52:39;2.08;;;0.57;;
8187;SDS011;4135;49.184;9.722;2023-04-25T04:55:09;1.08;;;0.52;;
8187;SDS011;4135;49.184;9.722;2023-04-25T04:57:38;1.48;;;0.45;;
8187;SDS011;4135;49.184;9.722;2023-04-25T05:00:08;2.13;;;0.65;;
8187;SDS011;4135;49.184;9.722;2023-04-25T05:02:40;1.50;;;0.70;;
8187;SDS011;4135;49.184;9.722;2023-04-25T05:05:09;2.88;;;0.90;;
8187;SDS011;4135;49.184;9.722;2023-04-25T05:07:39;1.45;;;0.63;;
8187;SDS011;4135;49.184;9.722;2023-04-25T05:10:08;0.65;;;0.40;;
8187;SDS011;4135;49.184;9.722;2023-04-25T05:12:39;4.93;;;0.60;;
8187;SDS011;4135;49.184;9.722;2023-04-25T05:15:09;1.27;;;0.73;;
8187;SDS011;4135;49.184;9.722;2023-04-25T05:17:38;3.60;;;0.60;;
8187;SDS011;4135;49.184;9.722;2023-04-25T05:20:08;6.65;;;0.63;;
8187;SDS011;4135;49.184;9.722;2023-04-25T05:22:38;4.90;;;0.60;;
8187;SDS011;4135;49.184;9.722;2023-04-25T05:25:08;6.93;;;1.30;;
8187;SDS011;4135;49.184;9.722;2023-04-25T05:27:38;3.13;;;0.50;;
8187;SDS011;4135;49.184;9.722;2023-04-25T05:30:08;1.52;;;1.02;;
8187;SDS011;4135;49.184;9.722;2023-04-25T05:32:38;1.27;;;0.57;;
8187;SDS011;4135;49.184;9.722;2023-04-25T05:35:08;3.47;;;0.90;;
8187;SDS011;4135;49.184;9.722;2023-04-25T05:37:37;5.13;;;1.00;;
8187;SDS011;4135;49.184;9.722;2023-04-25T05:40:07;1.70;;;0.70;;
8187;SDS011;4135;49.184;9.722;2023-04-25T05:42:37;2.33;;;0.50;;
8187;SDS011;4135;49.184;9.722;2023-04-25T05:45:07;1.98;;;0.80;;
8187;SDS011;4135;49.184;9.722;2023-04-25T05:47:37;2.53;;;0.57;;
8187;SDS011;4135;49.184;9.722;2023-04-25T05:50:06;2.45;;;0.70;;
8187;SDS011;4135;49.184;9.722;2023-04-25T05:52:37;1.92;;;0.57;;
8187;SDS011;4135;49.184;9.722;2023-04-25T05:55:07;3.13;;;0.85;;
8187;SDS011;4135;49.184;9.722;2023-04-25T05:57:37;2.63;;;0.80;;
8187;SDS011;4135;49.184;9.722;2023-04-25T06:00:11;1.70;;;0.60;;
8187;SDS011;4135;49.184;9.722;2023-04-25T06:02:42;7.45;;;1.13;;
8187;SDS011;4135;49.184;9.722;2023-04-25T06:05:12;4.90;;;1.20;;
8187;SDS011;4135;49.184;9.722;2023-04-25T06:07:41;4.55;;;0.93;;
8187;SDS011;4135;49.184;9.722;2023-04-25T06:10:11;2.60;;;0.75;;
8187;SDS011;4135;49.184;9.722;2023-04-25T06:12:40;1.98;;;0.80;;
8187;SDS011;4135;49.184;9.722;2023-04-25T06:15:10;2.03;;;1.13;;
8187;SDS011;4135;49.184;9.722;2023-04-25T06:17:39;2.55;;;0.77;;
8187;SDS011;4135;49.184;9.722;2023-04-25T06:20:09;2.83;;;0.60;;
8187;SDS011;4135;49.184;9.722;2023-04-25T06:22:39;5.35;;;0.90;;
8187;SDS011;4135;49.184;9.722;2023-04-25T06:25:08;2.33;;;1.05;;
8187;SDS011;4135;49.184;9.722;2023-04-25T06:27:38;1.65;;;0.65;;
8187;SDS011;4135;49.184;9.722;2023-04-25T06:30:07;1.10;;;0.60;;
8187;SDS011;4135;49.184;9.722;2023-04-25T06:32:38;1.50;;;0.47;;
8187;SDS011;4135;49.184;9.722;2023-04-25T06:35:07;2.92;;;0.90;;
8187;SDS011;4135;49.184;9.722;2023-04-25T06:37:37;1.52;;;0.88;;
8187;SDS011;4135;49.184;9.722;2023-04-25T06:40:07;1.02;;;0.60;;
8187;SDS011;4135;49.184;9.722;2023-04-25T06:42:37;5.70;;;0.85;;
8187;SDS011;4135;49.184;9.722;2023-04-25T06:45:07;4.68;;;1.00;;
8187;SDS011;4135;49.184;9.722;2023-04-25T06:47:36;3.88;;;0.75;;
8187;SDS011;4135;49.184;9.722;2023-04-25T06:50:06;3.28;;;0.60;;
8187;SDS011;4135;49.184;9.722;2023-04-25T06:52:36;3.08;;;0.80;;
8187;SDS011;4135;49.184;9.722;2023-04-25T06:55:06;0.98;;;0.63;;
8187;SDS011;4135;49.184;9.722;2023-04-25T06:57:35;2.45;;;1.17;;
8187;SDS011;4135;49.184;9.722;2023-04-25T07:00:05;5.03;;;0.57;;
8187;SDS011;4135;49.184;9.722;2023-04-25T07:02:37;1.38;;;0.80;;
8187;SDS011;4135;49.184;9.722;2023-04-25T07:05:07;1.58;;;0.80;;
8187;SDS011;4135;49.184;9.722;2023-04-25T07:07:37;1.92;;;0.60;;
8187;SDS011;4135;49.184;9.722;2023-04-25T07:10:06;2.97;;;0.73;;
8187;SDS011;4135;49.184;9.722;2023-04-25T07:12:36;1.98;;;0.68;;
8187;SDS011;4135;49.184;9.722;2023-04-25T07:15:06;4.50;;;0.93;;
8187;SDS011;4135;49.184;9.722;2023-04-25T07:17:37;1.98;;;0.52;;
8187;SDS011;4135;49.184;9.722;2023-04-25T07:20:07;0.90;;;0.50;;
8187;SDS011;4135;49.184;9.722;2023-04-25T07:22:38;3.35;;;0.70;;
8187;SDS011;4135;49.184;9.722;2023-04-25T07:25:08;1.63;;;1.02;;
8187;SDS011;4135;49.184;9.722;2023-04-25T07:27:38;1.35;;;0.65;;
8187;SDS011;4135;49.184;9.722;2023-04-25T07:30:08;1.20;;;0.63;;
8187;SDS011;4135;49.184;9.722;2023-04-25T07:32:38;0.80;;;0.63;;
8187;SDS011;4135;49.184;9.722;2023-04-25T07:35:08;3.15;;;0.98;;
8187;SDS011;4135;49.184;9.722;2023-04-25T07:37:38;7.22;;;2.42;;
8187;SDS011;4135;49.184;9.722;2023-04-25T07:40:07;4.50;;;2.78;;
8187;SDS011;4135;49.184;9.722;2023-04-25T07:42:38;3.30;;;2.67;;
8187;SDS011;4135;49.184;9.722;2023-04-25T07:45:08;7.68;;;3.17;;
8187;SDS011;4135;49.184;9.722;2023-04-25T07:47:38;4.70;;;2.65;;
8187;SDS011;4135;49.184;9.722;2023-04-25T07:50:08;5.82;;;2.75;;
8187;SDS011;4135;49.184;9.722;2023-04-25T07:52:38;5.10;;;2.90;;
8187;SDS011;4135;49.184;9.722;2023-04-25T07:55:07;5.20;;;3.28;;
8187;SDS011;4135;49.184;9.722;2023-04-25T07:57:37;6.78;;;4.35;;
8187;SDS011;4135;49.184;9.722;2023-04-25T08:00:07;5.50;;;3.90;;
8187;SDS011;4135;49.184;9.722;2023-04-25T08:02:40;6.68;;;3.83;;
8187;SDS011;4135;49.184;9.722;2023-04-25T08:05:09;5.10;;;3.17;;
8187;SDS011;4135;49.184;9.722;2023-04-25T08:07:43;5.85;;;4.15;;
8187;SDS011;4135;49.184;9.722;2023-04-25T08:10:12;7.55;;;3.97;;
8187;SDS011;4135;49.184;9.722;2023-04-25T08:12:42;8.18;;;3.70;;
8187;SDS011;4135;49.184;9.722;2023-04-25T08:15:11;7.13;;;3.58;;
8187;SDS011;4135;49.184;9.722;2023-04-25T08:17:42;5.38;;;2.58;;
8187;SDS011;4135;49.184;9.722;2023-04-25T08:20:12;4.57;;;2.97;;
8187;SDS011;4135;49.184;9.722;2023-04-25T08:22:42;7.47;;;2.70;;
8187;SDS011;4135;49.184;9.722;2023-04-25T08:25:12;7.82;;;3.00;;
8187;SDS011;4135;49.184;9.722;2023-04-25T08:27:41;5.28;;;2.30;;
8187;SDS011;4135;49.184;9.722;2023-04-25T08:30:11;3.88;;;2.08;;
8187;SDS011;4135;49.184;9.722;2023-04-25T08:32:41;2.58;;;1.70;;
8187;SDS011;4135;49.184;9.722;2023-04-25T08:35:11;3.63;;;1.80;;
8187;SDS011;4135;49.184;9.722;2023-04-25T08:37:40;2.28;;;1.50;;
8187;SDS011;4135;49.184;9.722;2023-04-25T08:40:11;3.50;;;1.77;;
8187;SDS011;4135;49.184;9.722;2023-04-25T08:42:43;4.55;;;1.30;;
8187;SDS011;4135;49.184;9.722;2023-04-25T08:45:13;5.95;;;2.22;;
8187;SDS011;4135;49.184;9.722;2023-04-25T08:47:42;5.38;;;1.80;;
8187;SDS011;4135;49.184;9.722;2023-04-25T08:50:14;2.38;;;1.50;;
8187;SDS011;4135;49.184;9.722;2023-04-25T08:52:45;3.83;;;1.20;;
8187;SDS011;4135;49.184;9.722;2023-04-25T08:55:16;3.40;;;1.35;;
8187;SDS011;4135;49.184;9.722;2023-04-25T08:57:46;3.15;;;1.30;;
8187;SDS011;4135;49.184;9.722;2023-04-25T09:00:16;1.63;;;1.15;;
8187;SDS011;4135;49.184;9.722;2023-04-25T09:02:47;9.63;;;1.67;;
8187;SDS011;4135;49.184;9.722;2023-04-25T09:05:16;8.25;;;1.33;;
8187;SDS011;4135;49.184;9.722;2023-04-25T09:07:47;7.20;;;1.40;;
8187;SDS011;4135;49.184;9.722;2023-04-25T09:10:16;5.70;;;1.73;;
8187;SDS011;4135;49.184;9.722;2023-04-25T09:13:01;7.00;;;1.73;;
8187;SDS011;4135;49.184;9.722;2023-04-25T09:15:32;3.00;;;1.70;;
8187;SDS011;4135;49.184;9.722;2023-04-25T09:18:02;2.58;;;1.48;;
8187;SDS011;4135;49.184;9.722;2023-04-25T09:20:31;6.53;;;1.63;;
8187;SDS011;4135;49.184;9.722;2023-04-25T09:23:09;4.43;;;1.75;;
8187;SDS011;4135;49.184;9.722;2023-04-25T09:25:39;4.03;;;1.33;;
8187;SDS011;4135;49.184;9.722;2023-04-25T09:28:08;4.43;;;1.70;;
8187;SDS011;4135;49.184;9.722;2023-04-25T09:30:38;9.25;;;1.88;;
8187;SDS011;4135;49.184;9.722;2023-04-25T09:33:11;19.10;;;2.53;;
8187;SDS011;4135;49.184;9.722;2023-04-25T09:35:44;8.40;;;2.60;;
8187;SDS011;4135;49.184;9.722;2023-04-25T09:38:21;14.88;;;2.45;;
8187;SDS011;4135;49.184;9.722;2023-04-25T09:40:51;6.55;;;1.80;;
8187;SDS011;4135;49.184;9.722;2023-04-25T09:43:21;2.83;;;1.70;;
8187;SDS011;4135;49.184;9.722;2023-04-25T09:45:53;4.82;;;2.00;;
8187;SDS011;4135;49.184;9.722;2023-04-25T09:48:26;6.82;;;2.25;;
8187;SDS011;4135;49.184;9.722;2023-04-25T09:53:36;3.15;;;1.55;;
8187;SDS011;4135;49.184;9.722;2023-04-25T09:56:07;7.15;;;1.42;;
8187;SDS011;4135;49.184;9.722;2023-04-25T09:58:39;7.50;;;1.67;;
8187;SDS011;4135;49.184;9.722;2023-04-25T10:01:10;3.20;;;1.63;;
8187;SDS011;4135;49.184;9.722;2023-04-25T10:03:40;4.47;;;1.50;;
8187;SDS011;4135;49.184;9.722;2023-04-25T10:06:14;11.57;;;2.15;;
8187;SDS011;4135;49.184;9.722;2023-04-25T10:08:49;12.77;;;3.45;;
8187;SDS011;4135;49.184;9.722;2023-04-25T10:11:22;4.60;;;2.10;;
8187;SDS011;4135;49.184;9.722;2023-04-25T10:13:53;4.32;;;1.90;;
8187;SDS011;4135;49.184;9.722;2023-04-25T10:16:23;8.57;;;2.15;;
8187;SDS011;4135;49.184;9.722;2023-04-25T10:18:53;6.95;;;1.75;;
8187;SDS011;4135;49.184;9.722;2023-04-25T10:21:24;13.52;;;2.22;;
8187;SDS011;4135;49.184;9.722;2023-04-25T10:23:57;19.75;;;3.53;;
8187;SDS011;4135;49.184;9.722;2023-04-25T10:26:27;17.25;;;3.28;;
8187;SDS011;4135;49.184;9.722;2023-04-25T10:28:57;12.13;;;3.47;;
8187;SDS011;4135;49.184;9.722;2023-04-25T10:31:31;18.98;;;3.53;;
8187;SDS011;4135;49.184;9.722;2023-04-25T10:34:01;15.55;;;2.75;;
8187;SDS011;4135;49.184;9.722;2023-04-25T10:36:31;11.52;;;2.80;;
8187;SDS011;4135;49.184;9.722;2023-04-25T10:39:04;14.27;;;3.05;;
8187;SDS011;4135;49.184;9.722;2023-04-25T10:41:47;21.55;;;3.65;;
8187;SDS011;4135;49.184;9.722;2023-04-25T10:44:21;17.48;;;3.58;;
8187;SDS011;4135;49.184;9.722;2023-04-25T10:46:51;13.38;;;3.50;;
8187;SDS011;4135;49.184;9.722;2023-04-25T10:49:34;30.75;;;4.13;;
8187;SDS011;4135;49.184;9.722;2023-04-25T10:52:13;10.90;;;3.83;;
8187;SDS011;4135;49.184;9.722;2023-04-25T10:54:48;15.20;;;3.08;;
8187;SDS011;4135;49.184;9.722;2023-04-25T10:57:30;14.80;;;3.58;;
8187;SDS011;4135;49.184;9.722;2023-04-25T11:02:52;10.77;;;3.30;;
8187;SDS011;4135;49.184;9.722;2023-04-25T11:05:35;14.50;;;3.60;;
8187;SDS011;4135;49.184;9.722;2023-04-25T11:08:09;17.10;;;3.47;;
8187;SDS011;4135;49.184;9.722;2023-04-25T11:10:40;8.60;;;2.95;;
8187;SDS011;4135;49.184;9.722;2023-04-25T11:13:11;10.52;;;3.33;;
8187;SDS011;4135;49.184;9.722;2023-04-25T11:15:40;9.25;;;3.10;;
8187;SDS011;4135;49.184;9.722;2023-04-25T11:18:10;12.75;;;3.42;;
8187;SDS011;4135;49.184;9.722;2023-04-25T11:20:39;14.45;;;4.20;;
8187;SDS011;4135;49.184;9.722;2023-04-25T11:23:12;18.23;;;5.18;;
8187;SDS011;4135;49.184;9.722;2023-04-25T11:25:42;18.33;;;5.13;;
8187;SDS011;4135;49.184;9.722;2023-04-25T11:28:13;14.35;;;4.75;;
8187;SDS011;4135;49.184;9.722;2023-04-25T11:30:51;13.32;;;3.78;;
8187;SDS011;4135;49.184;9.722;2023-04-25T11:33:24;16.50;;;4.63;;
8187;SDS011;4135;49.184;9.722;2023-04-25T11:35:56;14.23;;;4.85;;
8187;SDS011;4135;49.184;9.722;2023-04-25T11:38:25;14.82;;;4.50;;
8187;SDS011;4135;49.184;9.722;2023-04-25T11:40:55;13.15;;;4.82;;
8187;SDS011;4135;49.184;9.722;2023-04-25T11:43:25;13.75;;;4.28;;
8187;SDS011;4135;49.184;9.722;2023-04-25T11:45:55;13.02;;;3.67;;
8187;SDS011;4135;49.184;9.722;2023-04-25T11:48:24;13.73;;;4.15;;
8187;SDS011;4135;49.184;9.722;2023-04-25T11:50:54;10.70;;;3.55;;
8187;SDS011;4135;49.184;9.722;2023-04-25T11:53:24;15.30;;;5.20;;
8187;SDS011;4135;49.184;9.722;2023-04-25T11:55:53;7.10;;;3.50;;
8187;SDS011;4135;49.184;9.722;2023-04-25T11:58:23;8.43;;;3.70;;
8187;SDS011;4135;49.184;9.722;2023-04-25T12:00:54;10.43;;;4.03;;
8187;SDS011;4135;49.184;9.722;2023-04-25T12:03:29;11.50;;;4.18;;
8187;SDS011;4135;49.184;9.722;2023-04-25T12:06:02;8.70;;;3.03;;
8187;SDS011;4135;49.184;9.722;2023-04-25T12:08:32;10.88;;;3.42;;
8187;SDS011;4135;49.184;9.722;2023-04-25T12:11:02;9.25;;;3.83;;
8187;SDS011;4135;49.184;9.722;2023-04-25T12:13:32;8.35;;;3.83;;
8187;SDS011;4135;49.184;9.722;2023-04-25T12:16:01;8.75;;;3.20;;
8187;SDS011;4135;49.184;9.722;2023-04-25T12:18:31;15.63;;;3.90;;
8187;SDS011;4135;49.184;9.722;2023-04-25T12:21:04;9.10;;;2.97;;
8187;SDS011;4135;49.184;9.722;2023-04-25T12:23:34;12.70;;;3.33;;
8187;SDS011;4135;49.184;9.722;2023-04-25T12:26:08;16.10;;;4.20;;
8187;SDS011;4135;49.184;9.722;2023-04-25T12:28:37;11.30;;;3.25;;
8187;SDS011;4135;49.184;9.722;2023-04-25T12:31:07;15.98;;;4.78;;
8187;SDS011;4135;49.184;9.722;2023-04-25T12:33:37;18.67;;;4.20;;
8187;SDS011;4135;49.184;9.722;2023-04-25T12:36:08;17.58;;;4.13;;
8187;SDS011;4135;49.184;9.722;2023-04-25T12:38:40;13.75;;;3.45;;
8187;SDS011;4135;49.184;9.722;2023-04-25T12:41:11;7.45;;;3.45;;
8187;SDS011;4135;49.184;9.722;2023-04-25T12:43:40;10.32;;;3.25;;
8187;SDS011;4135;49.184;9.722;2023-04-25T12:46:10;14.57;;;3.70;;
8187;SDS011;4135;49.184;9.722;2023-04-25T12:48:39;8.65;;;3.85;;
8187;SDS011;4135;49.184;9.722;2023-04-25T12:51:09;10.75;;;3.40;;
8187;SDS011;4135;49.184;9.722;2023-04-25T12:53:38;13.98;;;3.42;;
8187;SDS011;4135;49.184;9.722;2023-04-25T12:56:09;8.02;;;2.65;;
8187;SDS011;4135;49.184;9.722;2023-04-25T12:58:39;7.95;;;3.28;;
8187;SDS011;4135;49.184;9.722;2023-04-25T13:01:09;18.67;;;3.15;;
8187;SDS011;4135;49.184;9.722;2023-04-25T13:03:39;8.73;;;3.30;;
8187;SDS011;4135;49.184;9.722;2023-04-25T13:06:09;7.43;;;2.83;;
8187;SDS011;4135;49.184;9.722;2023-04-25T13:08:39;8.32;;;2.85;;
8187;SDS011;4135;49.184;9.722;2023-04-25T13:11:10;12.48;;;2.50;;
8187;SDS011;4135;49.184;9.722;2023-04-25T13:13:40;11.07;;;3.42;;
8187;SDS011;4135;49.184;9.722;2023-04-25T13:16:10;15.20;;;2.95;;
8187;SDS011;4135;49.184;9.722;2023-04-25T13:18:42;11.25;;;2.75;;
8187;SDS011;4135;49.184;9.722;2023-04-25T13:21:12;8.18;;;3.00;;
8187;SDS011;4135;49.184;9.722;2023-04-25T13:23:41;7.82;;;2.75;;
8187;SDS011;4135;49.184;9.722;2023-04-25T13:26:15;10.60;;;2.72;;
8187;SDS011;4135;49.184;9.722;2023-04-25T13:28:45;8.18;;;2.42;;
8187;SDS011;4135;49.184;9.722;2023-04-25T13:31:14;15.98;;;3.65;;
8187;SDS011;4135;49.184;9.722;2023-04-25T13:33:44;9.60;;;3.67;;
8187;SDS011;4135;49.184;9.722;2023-04-25T13:36:13;12.90;;;2.70;;
8187;SDS011;4135;49.184;9.722;2023-04-25T13:38:43;11.48;;;3.38;;
8187;SDS011;4135;49.184;9.722;2023-04-25T13:41:16;13.52;;;3.15;;
8187;SDS011;4135;49.184;9.722;2023-04-25T13:43:47;12.15;;;2.13;;
8187;SDS011;4135;49.184;9.722;2023-04-25T13:46:17;6.80;;;3.17;;
8187;SDS011;4135;49.184;9.722;2023-04-25T13:48:46;13.70;;;2.63;;
8187;SDS011;4135;49.184;9.722;2023-04-25T13:51:17;10.88;;;2.83;;
8187;SDS011;4135;49.184;9.722;2023-04-25T13:53:47;13.73;;;3.95;;
8187;SDS011;4135;49.184;9.722;2023-04-25T13:56:16;13.63;;;3.20;;
8187;SDS011;4135;49.184;9.722;2023-04-25T13:58:48;11.02;;;2.95;;
8187;SDS011;4135;49.184;9.722;2023-04-25T14:01:20;13.95;;;3.33;;
8187;SDS011;4135;49.184;9.722;2023-04-25T14:03:50;8.15;;;2.80;;
8187;SDS011;4135;49.184;9.722;2023-04-25T14:06:19;16.88;;;3.85;;
8187;SDS011;4135;49.184;9.722;2023-04-25T14:08:51;11.68;;;3.50;;
8187;SDS011;4135;49.184;9.722;2023-04-25T14:11:21;10.95;;;2.45;;
8187;SDS011;4135;49.184;9.722;2023-04-25T14:13:50;6.82;;;2.38;;
8187;SDS011;4135;49.184;9.722;2023-04-25T14:16:20;8.85;;;2.92;;
8187;SDS011;4135;49.184;9.722;2023-04-25T14:18:50;17.30;;;3.25;;
8187;SDS011;4135;49.184;9.722;2023-04-25T14:21:19;6.78;;;2.47;;
8187;SDS011;4135;49.184;9.722;2023-04-25T14:23:49;8.13;;;2.55;;
8187;SDS011;4135;49.184;9.722;2023-04-25T14:26:19;14.90;;;3.53;;
8187;SDS011;4135;49.184;9.722;2023-04-25T14:28:50;4.53;;;2.25;;
8187;SDS011;4135;49.184;9.722;2023-04-25T14:31:20;6.22;;;2.35;;
8187;SDS011;4135;49.184;9.722;2023-04-25T14:33:50;7.22;;;2.55;;
8187;SDS011;4135;49.184;9.722;2023-04-25T14:36:20;8.73;;;2.38;;
8187;SDS011;4135;49.184;9.722;2023-04-25T14:38:50;14.80;;;2.67;;
8187;SDS011;4135;49.184;9.722;2023-04-25T14:41:19;8.38;;;2.40;;
8187;SDS011;4135;49.184;9.722;2023-04-25T14:43:49;11.60;;;2.50;;
8187;SDS011;4135;49.184;9.722;2023-04-25T14:46:19;7.30;;;2.65;;
8187;SDS011;4135;49.184;9.722;2023-04-25T14:48:49;9.77;;;2.35;;
8187;SDS011;4135;49.184;9.722;2023-04-25T14:51:19;4.55;;;2.15;;
8187;SDS011;4135;49.184;9.722;2023-04-25T14:53:49;13.48;;;3.05;;
8187;SDS011;4135;49.184;9.722;2023-04-25T14:56:19;5.78;;;2.00;;
8187;SDS011;4135;49.184;9.722;2023-04-25T14:58:49;8.38;;;2.78;;
8187;SDS011;4135;49.184;9.722;2023-04-25T15:01:18;4.93;;;2.03;;
8187;SDS011;4135;49.184;9.722;2023-04-25T15:03:49;6.93;;;2.05;;
8187;SDS011;4135;49.184;9.722;2023-04-25T15:06:19;9.55;;;2.63;;
8187;SDS011;4135;49.184;9.722;2023-04-25T15:08:49;9.30;;;2.25;;
8187;SDS011;4135;49.184;9.722;2023-04-25T15:11:19;4.60;;;2.05;;
8187;SDS011;4135;49.184;9.722;2023-04-25T15:13:49;5.43;;;2.42;;
8187;SDS011;4135;49.184;9.722;2023-04-25T15:16:19;9.85;;;2.47;;
8187;SDS011;4135;49.184;9.722;2023-04-25T15:18:48;8.60;;;2.42;;
8187;SDS011;4135;49.184;9.722;2023-04-25T15:21:18;9.88;;;2.78;;
8187;SDS011;4135;49.184;9.722;2023-04-25T15:23:47;11.35;;;2.60;;
8187;SDS011;4135;49.184;9.722;2023-04-25T15:26:17;12.70;;;2.42;;
8187;SDS011;4135;49.184;9.722;2023-04-25T15:28:47;10.00;;;2.58;;
8187;SDS011;4135;49.184;9.722;2023-04-25T15:31:17;9.77;;;2.25;;
8187;SDS011;4135;49.184;9.722;2023-04-25T15:33:47;10.07;;;2.63;;
8187;SDS011;4135;49.184;9.722;2023-04-25T15:36:16;9.23;;;2.55;;